Allendale, MI (49401)

21:27 EDT le 16 septembre 2014 (GMT -0400)
Tallmadge Township | Change Station
CLOSE
Current Station
Stations météorologiques personnelles
Location: Marne, MI
Altitude: 682 ft
Stations météo à proximité

Alt. 682 ft 42.99 °N, 85.81 °W | Updated 1 minute ago

Ciel dégagé
Ciel dégagé
46.4 ° F
Paraît 46 ° F
N
0.0
Vent Variable Vent de ONO
Gusts 0.0 mph

Aujourd'hui
Haut(e) -- | Bas -- ° F
--% Risque de précip.
Hier
Haut(e) -- | Bas -- ° F
Precip. -- pouce
7:24 AM 7:51 PM
Dernier quartier, 41% visible
Pression 30.12 pouce
Visibilité 10.0 Miles terrestres
Nuages Ciel dégagé
Refroidissement éolien 46 ° F
Point de rosée 42 ° F
Humidité 86%
Précipitations 0.01 pouce
Profondeur de la couche neigeuse Non disponible.
UV 0 sur 12
Pollen 3.90 sur 12
Ozone Bon
PM2.5 Bon
Flu Activity Non disponible.
METAR KBIV 170053Z AUTO 00000KT 10SM CLR 09/07 A3011 RMK AO2 SLP200 T00940072

More Conditions Fewer Conditions

Pression 30.12 pouce
Visibilité 10.0 Miles terrestres
Nuages Ciel dégagé
Refroidissement éolien 46 ° F
Point de rosée 42 ° F
Humidité 86%
Précipitations 0.01 pouce
Profondeur de la couche neigeuse Non disponible.
UV 0 sur 12
Pollen 3.90 sur 12
Ozone Bon
PM2.5 Bon
Flu Activity Non disponible.
METAR KBIV 170053Z AUTO 00000KT 10SM CLR 09/07 A3011 RMK AO2 SLP200 T00940072

More Conditions Fewer Conditions

10-Day Weather Forecast

Almanac

Astronomie

Sep. 16, 2014 Lever Coucher
Temps réel 07:24 EDT 19:51 EDT
Crépuscule civil 06:56 EDT 20:20 EDT
Crépuscule nautique 06:22 EDT 20:53 EDT
Crépuscule astronomique 05:47 EDT 21:28 EDT
Lune 00:27 EDT (9/16) 15:21 EDT (9/16)
Durée de lumière visible 13h 24m
Longueur du jour
12h 27m
Tomorrow will be 2m 53s shorter.
Dernier quartier, 41% of the Moon is Illuminated
Aujourd'hui
Dernier quartier
Sep 24
Nouveau
Oct 1
Premier quartier
Oct 8
Pleine lune
Oct 15
Dernier quartier

Extrêmes aujourd'hui

State Highs State Lows

Community

WunderPhotos

Upload Photos

1,753,943 Photos téléchargées !

Nearby

Qualité de l'air

  Qualité de l'air Indice de la qualité de l'air Polluant
Hier Bon
PM2.5
Hier Bon
OZONE
Actuel Bon
OZONE
Actuel Bon
PM2.5
mardi Bon
OZONE
mardi Bon
PM2.5
mercredi Bon
OZONE
mercredi Bon
PM2.5
jeudi Bon
OZONE
jeudi Bon
PM2.5
vendredi Bon
OZONE
vendredi Bon
PM2.5
samedi Bon
OZONE
samedi Bon
PM2.5

Épaisseur de neige

Station Depth Altitude
Pas de nouvelles chutes de neige

Activité sismique

Ville Distance Mag. Time & Date
No recent earthquake activity has been reported nearby.
Minimum magnitude displayed is 2.5.

Températures des eaux côtières

Lieu Température
Holland, MI 59.0 ° F

Stations météo à proximité